Time;durP1;ratioP1;P1;durP2;ratioP2;P2;SDS_P1;SDS_P2;PMS_P1;PMS_P2;Temp;Humidity;BMP_temperature;BMP_pressure;BME280_temperature;BME280_humidity;BME280_pressure;Samples;Min_cycle;Max_cycle;Signal;HPM_P1;HPM_P2
2022/04/09 04:01:03;;;;;;;2.83;2.65;;;2.90;99.90;;;;;;5715968;23;20607;-69
2022/04/09 04:03:30;;;;;;;3.88;2.63;;;2.90;99.90;;;;;;4991979;28;20235;-69
2022/04/09 04:05:56;;;;;;;2.50;2.28;;;2.90;99.90;;;;;;5004006;28;20614;-69
2022/04/09 04:08:23;;;;;;;3.08;2.53;;;2.90;99.90;;;;;;4995404;28;20208;-69
2022/04/09 04:10:50;;;;;;;3.97;3.35;;;2.90;99.90;;;;;;5002275;28;20223;-69
2022/04/09 04:13:16;;;;;;;2.92;2.15;;;2.90;99.90;;;;;;5013524;28;20246;-69
2022/04/09 04:15:44;;;;;;;5.90;2.33;;;2.90;99.90;;;;;;4995379;28;20219;-69
2022/04/09 04:18:12;;;;;;;3.00;2.80;;;2.90;99.90;;;;;;4993827;28;20307;-69
2022/04/09 04:20:39;;;;;;;2.45;2.35;;;2.90;99.90;;;;;;5000013;28;20735;-69
2022/04/09 04:23:05;;;;;;;2.53;2.30;;;2.90;99.90;;;;;;5012753;28;20207;-70
2022/04/09 04:25:32;;;;;;;5.53;2.58;;;2.90;99.90;;;;;;5003167;28;20238;-69
2022/04/09 04:27:59;;;;;;;3.17;2.30;;;2.90;99.90;;;;;;5012108;28;20223;-70
2022/04/09 04:30:25;;;;;;;2.60;2.50;;;2.90;99.90;;;;;;4998972;28;20211;-70
2022/04/09 04:32:52;;;;;;;8.23;2.28;;;2.90;99.90;;;;;;4993468;28;20655;-69
2022/04/09 04:35:21;;;;;;;8.30;2.35;;;2.80;99.90;;;;;;4992950;28;20815;-69
2022/04/09 04:37:49;;;;;;;3.65;2.17;;;2.80;99.90;;;;;;4993407;28;20207;-69
2022/04/09 04:40:16;;;;;;;2.60;2.40;;;2.80;99.90;;;;;;4993138;28;20216;-69
2022/04/09 04:42:44;;;;;;;8.20;2.80;;;2.80;99.90;;;;;;4992564;28;20207;-69
2022/04/09 04:45:11;;;;;;;2.85;2.50;;;2.80;99.90;;;;;;4993291;28;20220;-69
2022/04/09 04:47:46;;;;;;;3.40;2.45;;;2.80;99.90;;;;;;4993106;28;20207;-69
2022/04/09 04:50:13;;;;;;;6.82;2.38;;;2.80;99.90;;;;;;4992205;28;20202;-70
2022/04/09 04:52:41;;;;;;;2.70;2.50;;;2.80;99.90;;;;;;4993360;28;20254;-71
2022/04/09 04:55:09;;;;;;;2.33;2.20;;;2.90;99.90;;;;;;4992725;28;20299;-70
2022/04/09 04:57:43;;;;;;;3.55;3.25;;;2.90;99.90;;;;;;4984399;28;20640;-70
2022/04/09 05:00:11;;;;;;;3.38;2.50;;;3.00;99.90;;;;;;4992063;28;20226;-70
2022/04/09 05:02:38;;;;;;;1.60;1.60;;;3.00;99.90;;;;;;5001864;28;20211;-70
2022/04/09 05:05:05;;;;;;;4.22;2.85;;;3.10;99.90;;;;;;5005589;28;20293;-70
2022/04/09 05:07:41;;;;;;;5.75;3.05;;;3.10;99.90;;;;;;4994668;28;20239;-70
2022/04/09 05:10:09;;;;;;;3.13;2.63;;;3.20;99.90;;;;;;4991680;28;20199;-70
2022/04/09 05:12:36;;;;;;;3.17;2.58;;;3.30;99.90;;;;;;5004551;28;20277;-70
2022/04/09 05:15:04;;;;;;;7.32;2.50;;;3.30;99.90;;;;;;5007886;28;20223;-70
2022/04/09 05:17:31;;;;;;;8.82;3.10;;;3.30;99.90;;;;;;4991915;28;20204;-70
2022/04/09 05:19:57;;;;;;;2.72;2.63;;;3.40;99.90;;;;;;4991510;28;20208;-70
2022/04/09 05:22:25;;;;;;;5.75;2.85;;;3.40;99.90;;;;;;5002281;28;20227;-70
2022/04/09 05:24:54;;;;;;;3.72;3.42;;;3.50;99.90;;;;;;5010149;28;20226;-70
2022/04/09 05:27:21;;;;;;;4.22;3.05;;;3.50;99.90;;;;;;4990204;28;20681;-70
2022/04/09 05:29:47;;;;;;;3.90;2.97;;;3.60;99.90;;;;;;4991379;28;20578;-70
2022/04/09 05:32:14;;;;;;;2.88;2.67;;;3.60;99.90;;;;;;4999677;28;20633;-70
2022/04/09 05:34:41;;;;;;;5.13;3.00;;;3.70;99.90;;;;;;5011471;28;20211;-70
2022/04/09 05:37:07;;;;;;;3.22;3.03;;;3.80;99.90;;;;;;4995022;28;20560;-70
2022/04/09 05:39:34;;;;;;;4.63;2.58;;;3.90;99.90;;;;;;4991834;28;20266;-70
2022/04/09 05:42:03;;;;;;;10.35;3.45;;;4.10;99.90;;;;;;4991657;28;20219;-70
2022/04/09 05:44:30;;;;;;;7.88;4.60;;;4.30;99.90;;;;;;5005668;28;20223;-70
2022/04/09 05:46:56;;;;;;;3.17;2.97;;;4.60;99.90;;;;;;4995404;28;20709;-70
2022/04/09 05:49:23;;;;;;;6.85;3.90;;;4.70;99.90;;;;;;4991576;28;20238;-70
2022/04/09 05:51:50;;;;;;;7.13;3.85;;;4.90;99.90;;;;;;4992565;28;20220;-70
2022/04/09 05:54:16;;;;;;;4.45;2.20;;;4.90;99.90;;;;;;5011641;28;20285;-70
2022/04/09 05:56:43;;;;;;;2.78;2.50;;;4.80;99.90;;;;;;4998790;28;20234;-70
2022/04/09 05:59:12;;;;;;;5.50;2.20;;;4.70;99.90;;;;;;4992241;28;20218;-70
2022/04/09 06:01:39;;;;;;;4.95;2.20;;;4.50;99.90;;;;;;4990351;28;20232;-70
2022/04/09 06:04:06;;;;;;;3.92;2.50;;;4.50;99.90;;;;;;4991952;28;20294;-70
2022/04/09 06:06:33;;;;;;;2.03;1.92;;;4.50;99.90;;;;;;4994849;28;20222;-70
2022/04/09 06:09:00;;;;;;;3.05;2.35;;;4.50;99.90;;;;;;4992810;28;20211;-70
2022/04/09 06:11:27;;;;;;;4.10;2.35;;;4.40;99.90;;;;;;4996993;28;20228;-70
2022/04/09 06:13:53;;;;;;;3.45;1.95;;;4.40;99.90;;;;;;4991934;28;20216;-70
2022/04/09 06:16:22;;;;;;;2.40;2.30;;;4.50;99.90;;;;;;4997827;28;20221;-70
2022/04/09 06:18:49;;;;;;;2.20;2.10;;;4.50;99.90;;;;;;4988477;28;20640;-70
2022/04/09 06:21:16;;;;;;;2.33;2.22;;;4.50;99.90;;;;;;4997185;28;20235;-70
2022/04/09 06:23:42;;;;;;;4.38;2.10;;;4.50;99.90;;;;;;4992009;28;20577;-70
2022/04/09 06:26:09;;;;;;;2.30;2.08;;;4.60;99.90;;;;;;4997289;28;20262;-69
2022/04/09 06:28:36;;;;;;;2.70;2.20;;;4.60;99.90;;;;;;4978258;28;20212;-70
2022/04/09 06:31:02;;;;;;;8.57;2.30;;;4.70;99.90;;;;;;4995065;28;20676;-69
2022/04/09 06:33:30;;;;;;;2.47;2.20;;;4.70;99.90;;;;;;4995455;28;20636;-69
2022/04/09 06:35:57;;;;;;;3.13;2.05;;;4.80;99.90;;;;;;5006983;28;20207;-69
2022/04/09 06:38:27;;;;;;;3.15;2.15;;;4.80;99.90;;;;;;4983173;28;20271;-69
2022/04/09 06:40:54;;;;;;;2.40;2.00;;;4.90;99.90;;;;;;4989956;28;20235;-69
2022/04/09 06:43:20;;;;;;;3.90;2.35;;;4.90;99.90;;;;;;4992835;28;20208;-71
2022/04/09 06:45:47;;;;;;;10.20;2.65;;;5.00;99.90;;;;;;4996964;28;20231;-70
2022/04/09 06:48:14;;;;;;;3.80;2.10;;;5.10;99.90;;;;;;4996355;28;20669;-69
2022/04/09 06:50:42;;;;;;;2.08;1.92;;;5.20;99.90;;;;;;4989703;28;20227;-68
2022/04/09 06:53:08;;;;;;;1.70;1.70;;;5.30;99.90;;;;;;4991075;28;20215;-69
2022/04/09 06:55:35;;;;;;;6.13;2.65;;;5.40;99.90;;;;;;4990653;28;20204;-69
2022/04/09 06:58:03;;;;;;;5.53;3.10;;;5.60;99.90;;;;;;4986613;28;20204;-69
2022/04/09 07:00:32;;;;;;;3.45;2.83;;;5.70;99.90;;;;;;4989968;28;20212;-69
2022/04/09 07:03:00;;;;;;;3.33;2.00;;;5.90;99.90;;;;;;5002788;28;20210;-68
2022/04/09 07:05:27;;;;;;;3.70;2.28;;;6.10;99.90;;;;;;4988550;28;20640;-69
2022/04/09 07:07:55;;;;;;;4.47;2.45;;;6.20;99.90;;;;;;4995191;28;20207;-69
2022/04/09 07:10:22;;;;;;;4.63;2.20;;;6.00;99.90;;;;;;4989993;28;20208;-69
2022/04/09 07:12:48;;;;;;;4.72;2.28;;;6.10;99.90;;;;;;5001988;28;20212;-69
2022/04/09 07:15:15;;;;;;;1.45;1.40;;;6.00;99.90;;;;;;5012858;28;20210;-71
2022/04/09 07:17:43;;;;;;;4.45;2.05;;;5.90;99.90;;;;;;5003686;28;20207;-69
2022/04/09 07:20:11;;;;;;;2.30;2.20;;;5.60;99.90;;;;;;4983615;28;20291;-70
2022/04/09 07:22:40;;;;;;;2.22;2.13;;;6.90;99.90;;;;;;4993348;28;20235;-70
2022/04/09 07:25:09;;;;;;;3.25;2.45;;;5.50;99.90;;;;;;5004976;28;20269;-69
2022/04/09 07:27:37;;;;;;;6.80;2.22;;;5.50;99.90;;;;;;4995626;28;20208;-70
2022/04/09 07:30:05;;;;;;;2.58;2.00;;;5.60;99.90;;;;;;4993904;28;20250;-69
2022/04/09 07:32:32;;;;;;;3.85;2.20;;;5.70;99.90;;;;;;4993880;28;20736;-69
2022/04/09 07:34:59;;;;;;;3.10;2.10;;;5.80;99.90;;;;;;5006605;28;20544;-70
2022/04/09 07:37:25;;;;;;;3.25;3.03;;;5.80;99.90;;;;;;4994327;28;20207;-70
2022/04/09 07:39:53;;;;;;;6.03;2.55;;;6.10;99.90;;;;;;4993601;28;20715;-70
2022/04/09 07:42:21;;;;;;;1.98;1.88;;;6.40;99.90;;;;;;4982256;28;20260;-70
2022/04/09 07:44:48;;;;;;;6.97;2.78;;;6.40;99.90;;;;;;5000180;28;20207;-70
2022/04/09 07:47:15;;;;;;;10.10;2.80;;;6.30;99.90;;;;;;5013913;28;20278;-71
2022/04/09 07:49:44;;;;;;;2.70;2.50;;;6.30;99.90;;;;;;5006123;28;20204;-70
2022/04/09 07:52:11;;;;;;;3.85;2.05;;;6.30;99.90;;;;;;4991906;28;20224;-70
2022/04/09 07:54:38;;;;;;;2.95;2.20;;;6.40;99.90;;;;;;5012824;28;20293;-70
2022/04/09 07:57:05;;;;;;;4.00;2.58;;;6.40;99.90;;;;;;5007464;28;20200;-70
2022/04/09 07:59:33;;;;;;;3.45;2.80;;;6.50;99.90;;;;;;4994366;28;20231;-70
2022/04/09 08:02:00;;;;;;;3.35;2.38;;;6.60;99.90;;;;;;4996282;28;20239;-70
2022/04/09 08:04:27;;;;;;;3.92;3.50;;;6.60;99.90;;;;;;5013879;28;20310;-70
2022/04/09 08:06:53;;;;;;;2.67;2.58;;;6.60;99.90;;;;;;5008259;28;20688;-70
2022/04/09 08:09:20;;;;;;;2.70;2.25;;;6.70;99.90;;;;;;4987099;28;20568;-70
2022/04/09 08:11:47;;;;;;;1.83;1.73;;;6.80;99.90;;;;;;4993730;28;20224;-70
2022/04/09 08:14:14;;;;;;;3.42;2.08;;;6.90;99.90;;;;;;5013511;28;20208;-70
2022/04/09 08:16:42;;;;;;;3.55;2.20;;;7.10;99.90;;;;;;5014039;28;20215;-70
2022/04/09 08:19:08;;;;;;;2.33;2.13;;;7.20;99.90;;;;;;4979595;28;20220;-70
2022/04/09 08:21:35;;;;;;;1.75;1.65;;;7.20;99.90;;;;;;4977886;28;20232;-70
2022/04/09 08:24:02;;;;;;;2.28;1.90;;;7.20;99.90;;;;;;4992254;28;20204;-71
2022/04/09 08:26:29;;;;;;;5.35;2.10;;;7.40;99.90;;;;;;5003973;28;20239;-71
2022/04/09 08:28:56;;;;;;;1.42;1.30;;;7.50;99.90;;;;;;4984446;28;20208;-71
2022/04/09 08:31:23;;;;;;;1.60;1.50;;;7.40;99.90;;;;;;4986623;28;20220;-71
2022/04/09 08:33:51;;;;;;;2.92;1.60;;;7.40;99.90;;;;;;4998923;28;20231;-71
2022/04/09 08:36:18;;;;;;;2.50;1.50;;;7.40;99.90;;;;;;4992981;28;20204;-71
2022/04/09 08:38:44;;;;;;;4.20;2.22;;;7.30;99.90;;;;;;4993271;28;20234;-71
2022/04/09 08:41:14;;;;;;;4.07;2.10;;;7.30;99.90;;;;;;4995629;28;20722;-71
2022/04/09 08:43:42;;;;;;;2.00;1.58;;;7.20;99.90;;;;;;5008644;28;20584;-71
2022/04/09 08:46:08;;;;;;;2.15;1.92;;;7.20;99.90;;;;;;4993290;28;20236;-71
2022/04/09 08:48:37;;;;;;;1.40;1.40;;;7.20;99.90;;;;;;4992666;28;20356;-71
2022/04/09 08:51:05;;;;;;;1.10;1.10;;;7.30;99.90;;;;;;4993620;28;20228;-71
2022/04/09 08:53:32;;;;;;;1.83;1.02;;;7.50;99.90;;;;;;5000212;28;20596;-71
2022/04/09 08:55:58;;;;;;;3.75;1.20;;;7.70;99.90;;;;;;4986427;28;20232;-71
2022/04/09 08:58:25;;;;;;;1.40;1.20;;;7.60;99.90;;;;;;4987769;28;20212;-71
2022/04/09 09:00:52;;;;;;;3.70;1.42;;;7.50;99.90;;;;;;5004549;28;20250;-71
2022/04/09 09:03:18;;;;;;;3.05;0.57;;;7.20;99.90;;;;;;4997435;28;20212;-71
2022/04/09 09:05:48;;;;;;;2.05;0.52;;;6.90;99.90;;;;;;5001868;28;20625;-72
2022/04/09 09:08:16;;;;;;;1.52;0.60;;;6.60;99.90;;;;;;4993831;28;20219;-72
2022/04/09 09:10:43;;;;;;;1.02;0.95;;;6.40;99.90;;;;;;4988155;28;20711;-71
2022/04/09 09:13:11;;;;;;;0.57;0.57;;;6.30;99.90;;;;;;4975590;28;20231;-71
2022/04/09 09:15:46;;;;;;;1.00;0.90;;;6.30;99.90;;;;;;4997874;28;20214;-72
2022/04/09 09:18:20;;;;;;;0.80;0.80;;;6.30;99.90;;;;;;4991962;28;20268;-71
2022/04/09 09:20:51;;;;;;;0.90;0.90;;;6.40;99.90;;;;;;4979563;28;20291;-71
2022/04/09 09:23:23;;;;;;;1.08;1.08;;;6.40;99.90;;;;;;4978026;28;20781;-71
2022/04/09 09:25:50;;;;;;;1.23;1.02;;;6.50;99.90;;;;;;4992390;28;20302;-71
2022/04/09 09:28:23;;;;;;;0.77;0.77;;;6.60;99.90;;;;;;4990175;28;20286;-71
2022/04/09 09:30:50;;;;;;;2.47;0.73;;;6.70;99.90;;;;;;4991386;28;20635;-71
2022/04/09 09:33:17;;;;;;;0.95;0.95;;;6.70;99.90;;;;;;4991722;28;20295;-71
2022/04/09 09:35:54;;;;;;;0.93;0.93;;;6.80;99.90;;;;;;4989147;28;20192;-71
2022/04/09 09:38:24;;;;;;;2.85;1.65;;;7.00;99.90;;;;;;4986047;28;20245;-71
2022/04/09 09:40:51;;;;;;;1.17;1.15;;;7.20;99.90;;;;;;4990480;28;20224;-71
2022/04/09 09:43:19;;;;;;;2.28;1.05;;;7.30;99.90;;;;;;4991944;28;20258;-71
2022/04/09 09:45:46;;;;;;;5.25;1.73;;;7.40;99.90;;;;;;4985367;28;20220;-71
2022/04/09 09:48:21;;;;;;;3.38;1.65;;;7.60;99.90;;;;;;4987184;28;20204;-71
2022/04/09 09:50:48;;;;;;;1.77;1.23;;;7.80;99.90;;;;;;4989597;28;20289;-71
2022/04/09 09:53:15;;;;;;;1.77;1.42;;;7.90;99.90;;;;;;4990837;28;20200;-71
2022/04/09 09:55:44;;;;;;;0.80;0.80;;;7.90;99.90;;;;;;4989926;28;20291;-71
2022/04/09 09:58:15;;;;;;;1.23;1.08;;;7.80;99.90;;;;;;4992054;28;20263;-71
2022/04/09 10:00:42;;;;;;;0.93;0.93;;;7.90;99.90;;;;;;4990450;28;20240;-71
2022/04/09 10:03:10;;;;;;;0.95;0.95;;;8.00;99.90;;;;;;4992706;28;20231;-71
2022/04/09 10:05:38;;;;;;;0.52;0.52;;;8.00;99.90;;;;;;4990824;28;20234;-69
2022/04/09 10:08:06;;;;;;;1.25;0.75;;;8.00;99.90;;;;;;4991245;28;20251;-70
2022/04/09 10:10:36;;;;;;;1.20;1.10;;;8.10;99.90;;;;;;4992562;28;20286;-70
2022/04/09 10:13:05;;;;;;;1.02;0.60;;;8.00;99.90;;;;;;4991351;28;20742;-69
2022/04/09 10:15:32;;;;;;;1.95;0.70;;;8.10;99.90;;;;;;4999153;28;20375;-70
2022/04/09 10:18:02;;;;;;;0.75;0.75;;;8.10;99.90;;;;;;4990950;28;20204;-70
2022/04/09 10:20:30;;;;;;;1.50;0.73;;;8.10;99.90;;;;;;4989507;28;20204;-70
2022/04/09 10:23:00;;;;;;;1.25;1.15;;;8.20;99.90;;;;;;4991736;28;20238;-70
2022/04/09 10:25:29;;;;;;;0.90;0.90;;;8.20;99.90;;;;;;4989747;28;20207;-70
2022/04/09 10:28:01;;;;;;;0.50;0.50;;;8.30;99.90;;;;;;4981711;28;20204;-70
2022/04/09 10:30:38;;;;;;;2.83;0.60;;;8.50;99.90;;;;;;4990101;28;20613;-70
2022/04/09 10:33:21;;;;;;;3.58;0.45;;;8.50;99.90;;;;;;4985644;28;20196;-68
2022/04/09 10:35:48;;;;;;;2.55;0.40;;;8.30;99.90;;;;;;4971353;28;20204;-69
2022/04/09 10:38:19;;;;;;;0.60;0.45;;;8.20;99.90;;;;;;4980411;28;20266;-70
2022/04/09 10:41:27;;;;;;;0.55;0.40;;;7.90;99.90;;;;;;4988419;28;20253;-69
2022/04/09 10:43:57;;;;;;;1.15;0.45;;;7.80;99.90;;;;;;4984501;28;20637;-70
2022/04/09 10:46:35;;;;;;;0.40;0.40;;;7.60;99.90;;;;;;4972028;28;20220;-69
2022/04/09 10:49:25;;;;;;;0.40;0.40;;;7.60;99.90;;;;;;4988932;28;20203;-69
2022/04/09 10:52:01;;;;;;;0.30;0.30;;;7.50;99.90;;;;;;5014278;28;20245;-68
2022/04/09 10:54:28;;;;;;;1.20;0.90;;;7.60;99.90;;;;;;5014019;28;20516;-70
2022/04/09 10:56:54;;;;;;;0.68;0.68;;;7.60;99.90;;;;;;4999064;28;20485;-69
2022/04/09 10:59:34;;;;;;;0.30;0.30;;;7.70;99.90;;;;;;4985270;28;20215;-68
2022/04/09 11:02:04;;;;;;;0.50;0.50;;;7.70;99.90;;;;;;4979686;28;20327;-69
2022/04/09 11:04:44;;;;;;;0.40;0.40;;;7.80;99.90;;;;;;4976052;28;20212;-69
2022/04/09 11:07:12;;;;;;;0.52;0.43;;;8.00;99.90;;;;;;4975851;28;20745;-68
2022/04/09 11:09:44;;;;;;;1.02;0.50;;;8.00;99.90;;;;;;4989771;28;20226;-69
2022/04/09 11:12:11;;;;;;;0.90;0.35;;;8.10;99.90;;;;;;4970155;23;20237;-67
2022/04/09 11:14:45;;;;;;;7.88;1.10;;;8.00;99.90;;;;;;4945431;28;20205;-67
2022/04/09 11:17:23;;;;;;;1.13;0.90;;;8.00;99.90;;;;;;4935802;29;20674;-67
2022/04/09 11:19:50;;;;;;;0.70;0.65;;;8.10;99.90;;;;;;4942704;29;20209;-67
2022/04/09 11:22:18;;;;;;;1.10;0.70;;;8.10;99.90;;;;;;4917987;29;20327;-68
2022/04/09 11:24:45;;;;;;;3.03;0.60;;;8.20;99.90;;;;;;4917741;29;20214;-67
2022/04/09 11:27:12;;;;;;;1.15;1.15;;;8.30;99.90;;;;;;4933432;29;20218;-66
2022/04/09 11:29:40;;;;;;;1.75;0.70;;;8.30;99.90;;;;;;4935130;29;20265;-66
2022/04/09 11:32:16;;;;;;;0.98;0.98;;;8.40;99.90;;;;;;4935898;29;20222;-66
2022/04/09 11:34:49;;;;;;;5.65;1.15;;;8.50;99.90;;;;;;4935258;29;20202;-69
2022/04/09 11:37:16;;;;;;;0.98;0.90;;;8.70;99.90;;;;;;4936245;29;20693;-66
2022/04/09 11:39:45;;;;;;;0.75;0.75;;;9.00;99.90;;;;;;4935497;29;20698;-67
2022/04/09 11:42:12;;;;;;;0.60;0.60;;;9.30;99.90;;;;;;4935942;29;20240;-67
2022/04/09 11:44:39;;;;;;;2.00;1.02;;;9.30;99.90;;;;;;4936735;29;20684;-67
2022/04/09 11:47:12;;;;;;;1.08;0.70;;;9.20;99.90;;;;;;4936099;29;20686;-67
2022/04/09 11:49:38;;;;;;;1.30;0.60;;;9.00;99.90;;;;;;4935082;29;20206;-67
2022/04/09 11:52:08;;;;;;;2.92;1.25;;;8.80;99.90;;;;;;4936347;29;20301;-67
2022/04/09 11:54:38;;;;;;;1.00;1.00;;;8.50;99.90;;;;;;4936580;29;20648;-68
2022/04/09 11:57:09;;;;;;;4.55;1.10;;;8.50;99.90;;;;;;4935822;29;20300;-69
2022/04/09 11:59:36;;;;;;;1.70;1.60;;;8.40;99.90;;;;;;4932479;29;20206;-67
2022/04/09 12:02:03;;;;;;;1.17;1.05;;;8.30;99.90;;;;;;4926209;29;20248;-67
2022/04/09 12:04:34;;;;;;;1.67;1.10;;;8.40;99.90;;;;;;4933453;29;20210;-68
2022/04/09 12:07:03;;;;;;;4.45;0.70;;;8.50;99.90;;;;;;4935588;29;20327;-68
2022/04/09 12:09:31;;;;;;;4.07;1.30;;;8.80;99.90;;;;;;4930574;29;20296;-68
2022/04/09 12:12:01;;;;;;;1.90;1.15;;;8.90;99.90;;;;;;4937580;29;20304;-68
2022/04/09 12:14:28;;;;;;;2.10;1.02;;;9.10;99.90;;;;;;4932354;29;20233;-68
2022/04/09 12:16:56;;;;;;;2.60;1.10;;;9.10;99.90;;;;;;4935823;28;20203;-68
2022/04/09 12:19:32;;;;;;;1.33;0.82;;;9.20;99.90;;;;;;4932488;29;20896;-68
2022/04/09 12:22:16;;;;;;;3.05;0.85;;;9.20;99.90;;;;;;4934522;29;20226;-68
2022/04/09 12:24:54;;;;;;;1.45;0.82;;;9.40;99.90;;;;;;4934203;29;20240;-68
2022/04/09 12:27:23;;;;;;;0.75;0.73;;;9.40;99.90;;;;;;4931476;29;20240;-67
2022/04/09 12:29:52;;;;;;;2.15;0.70;;;9.30;99.90;;;;;;4934157;29;20210;-67
2022/04/09 12:32:23;;;;;;;4.13;0.57;;;9.20;99.90;;;;;;4935224;29;20226;-68
2022/04/09 12:34:58;;;;;;;1.05;0.50;;;9.30;99.90;;;;;;4932543;29;20206;-68
2022/04/09 12:37:26;;;;;;;1.85;0.60;;;9.40;99.90;;;;;;4933893;29;20554;-68
2022/04/09 12:40:12;;;;;;;1.02;0.93;;;9.50;99.90;;;;;;4933755;29;20238;-69
2022/04/09 12:42:38;;;;;;;1.10;0.52;;;9.50;99.90;;;;;;4934480;29;20229;-68
2022/04/09 12:45:15;;;;;;;2.67;0.80;;;9.60;99.90;;;;;;4928640;29;20221;-68
2022/04/09 12:47:42;;;;;;;1.55;0.50;;;9.90;99.90;;;;;;4931477;29;20217;-68
2022/04/09 12:50:19;;;;;;;1.20;1.17;;;10.10;99.90;;;;;;4930806;29;20207;-68
2022/04/09 12:52:46;;;;;;;2.40;1.27;;;10.30;99.90;;;;;;4931629;29;20218;-69
2022/04/09 12:55:19;;;;;;;1.08;0.40;;;10.30;99.90;;;;;;4933306;29;20233;-68
2022/04/09 12:57:46;;;;;;;1.40;0.80;;;10.40;99.90;;;;;;4932573;29;20546;-68
2022/04/09 13:00:14;;;;;;;3.55;1.17;;;10.20;99.90;;;;;;4933230;29;20201;-67
2022/04/09 13:02:42;;;;;;;2.38;1.58;;;9.80;99.90;;;;;;4934604;29;20210;-68
2022/04/09 13:05:09;;;;;;;4.22;0.90;;;9.70;99.90;;;;;;4933743;29;20213;-70
2022/04/09 13:07:36;;;;;;;0.60;0.60;;;9.60;99.90;;;;;;4934731;29;20251;-68
2022/04/09 13:10:03;;;;;;;2.05;0.93;;;9.40;99.90;;;;;;4929610;29;20209;-68
2022/04/09 13:12:31;;;;;;;1.85;1.02;;;9.30;99.90;;;;;;4933333;29;20238;-68
2022/04/09 13:14:58;;;;;;;3.60;0.60;;;9.20;99.90;;;;;;4934446;29;20244;-67
2022/04/09 13:17:24;;;;;;;3.03;1.70;;;9.10;99.90;;;;;;4934684;29;20297;-68
2022/04/09 13:19:51;;;;;;;4.07;0.75;;;9.10;99.90;;;;;;4933668;29;20734;-68
2022/04/09 13:22:18;;;;;;;2.70;1.20;;;9.30;99.90;;;;;;4926267;29;20255;-68
2022/04/09 13:24:45;;;;;;;1.60;0.75;;;9.50;99.90;;;;;;4934534;29;20210;-67
2022/04/09 13:27:12;;;;;;;1.50;0.80;;;9.60;99.90;;;;;;4933690;29;20234;-68
2022/04/09 13:29:40;;;;;;;1.55;0.95;;;9.70;99.90;;;;;;4933901;29;20213;-68
2022/04/09 13:32:08;;;;;;;1.65;1.00;;;10.00;99.90;;;;;;4935478;29;20621;-68
2022/04/09 13:34:34;;;;;;;2.35;2.25;;;10.10;99.90;;;;;;4934504;29;20246;-68
2022/04/09 13:37:01;;;;;;;2.30;1.02;;;10.10;99.90;;;;;;4934037;29;20206;-68
2022/04/09 13:39:27;;;;;;;2.60;1.10;;;10.10;99.90;;;;;;4935131;29;20205;-68
2022/04/09 13:41:54;;;;;;;0.75;0.75;;;10.20;99.90;;;;;;4931416;29;20285;-68
2022/04/09 13:44:21;;;;;;;2.35;0.95;;;10.20;99.90;;;;;;4936956;29;20210;-68
2022/04/09 13:46:50;;;;;;;2.85;0.77;;;10.20;99.90;;;;;;4941791;29;20236;-68
2022/04/09 13:49:16;;;;;;;5.95;1.50;;;10.10;99.90;;;;;;4953225;28;20201;-68
2022/04/09 13:51:43;;;;;;;1.25;0.95;;;10.00;99.90;;;;;;4952933;28;20255;-67
2022/04/09 13:54:10;;;;;;;6.50;2.22;;;9.90;99.90;;;;;;4942265;28;20937;-68
2022/04/09 13:56:36;;;;;;;1.95;1.45;;;9.90;99.90;;;;;;4932364;29;20582;-67
2022/04/09 13:59:03;;;;;;;4.55;2.40;;;9.90;99.90;;;;;;4933873;29;20206;-68
2022/04/09 14:01:31;;;;;;;1.55;1.08;;;9.90;99.90;;;;;;4933353;29;20236;-67
2022/04/09 14:03:59;;;;;;;6.22;2.28;;;10.00;99.90;;;;;;4933447;29;20210;-65
2022/04/09 14:06:26;;;;;;;2.55;1.35;;;9.80;99.90;;;;;;4933797;29;20206;-67
2022/04/09 14:08:54;;;;;;;2.63;1.58;;;9.60;99.90;;;;;;4933678;29;20236;-66
2022/04/09 14:11:21;;;;;;;3.67;1.55;;;9.50;99.90;;;;;;4932518;29;20844;-66
2022/04/09 14:13:48;;;;;;;4.05;1.50;;;9.30;99.90;;;;;;4933393;29;20213;-67
2022/04/09 14:16:15;;;;;;;1.02;1.02;;;9.20;99.90;;;;;;4933959;29;20250;-68
2022/04/09 14:18:42;;;;;;;1.85;1.30;;;9.20;99.90;;;;;;4928174;29;20598;-66
2022/04/09 14:21:10;;;;;;;5.20;2.53;;;9.20;99.90;;;;;;4932511;29;20715;-67
2022/04/09 14:23:36;;;;;;;1.30;1.15;;;9.30;99.90;;;;;;4932914;29;20201;-67
2022/04/09 14:26:03;;;;;;;4.00;0.80;;;9.30;99.90;;;;;;4928879;29;20582;-68
2022/04/09 14:28:30;;;;;;;5.57;1.45;;;9.40;99.90;;;;;;4933185;29;20742;-68
2022/04/09 14:30:57;;;;;;;6.45;1.23;;;9.40;99.90;;;;;;4932601;29;20222;-68
2022/04/09 14:33:23;;;;;;;3.15;1.30;;;9.50;99.90;;;;;;4933203;29;20625;-68
2022/04/09 14:35:52;;;;;;;7.47;1.50;;;9.60;99.90;;;;;;4932818;29;20296;-68
2022/04/09 14:38:20;;;;;;;3.00;1.52;;;9.70;99.90;;;;;;4933185;29;20658;-68
2022/04/09 14:40:47;;;;;;;1.80;0.88;;;9.60;99.90;;;;;;4932340;29;20386;-68
2022/04/09 14:43:14;;;;;;;2.40;1.60;;;9.50;99.90;;;;;;4933051;29;20210;-67
2022/04/09 14:45:42;;;;;;;6.03;1.70;;;9.50;99.90;;;;;;4933438;29;20209;-67
2022/04/09 14:48:09;;;;;;;3.47;1.42;;;9.40;99.90;;;;;;4933304;29;20321;-68
2022/04/09 14:50:36;;;;;;;4.85;1.80;;;9.30;99.90;;;;;;4932216;29;20256;-68
2022/04/09 14:53:04;;;;;;;2.80;0.85;;;9.10;99.90;;;;;;4933192;29;20578;-68
2022/04/09 14:55:32;;;;;;;1.90;1.00;;;9.10;99.90;;;;;;4932458;29;20205;-69
2022/04/09 14:57:58;;;;;;;4.22;1.42;;;9.10;99.90;;;;;;4933364;29;20205;-68
2022/04/09 15:00:25;;;;;;;2.53;0.90;;;9.00;99.90;;;;;;4930870;29;20220;-69
2022/04/09 15:02:52;;;;;;;3.20;1.20;;;9.00;99.90;;;;;;4933116;29;20257;-68
2022/04/09 15:05:19;;;;;;;2.60;1.20;;;8.90;99.90;;;;;;4932548;29;20233;-68
2022/04/09 15:07:46;;;;;;;3.30;1.00;;;8.80;99.90;;;;;;4925256;29;20229;-67
2022/04/09 15:10:13;;;;;;;2.78;1.55;;;8.70;99.90;;;;;;4932369;29;20206;-68
2022/04/09 15:12:42;;;;;;;3.50;1.70;;;8.70;99.90;;;;;;4932602;29;20217;-69
2022/04/09 15:15:10;;;;;;;4.38;2.10;;;8.60;99.90;;;;;;4932729;29;20218;-67
2022/04/09 15:17:37;;;;;;;3.90;1.65;;;8.70;99.90;;;;;;4932772;29;20301;-68
2022/04/09 15:20:04;;;;;;;4.47;1.60;;;8.80;99.90;;;;;;4932134;29;20240;-68
2022/04/09 15:22:31;;;;;;;3.95;2.53;;;8.90;99.90;;;;;;4932514;29;20267;-67
2022/04/09 15:24:58;;;;;;;3.35;1.17;;;8.90;99.90;;;;;;4924139;29;20213;-67
2022/04/09 15:27:25;;;;;;;3.35;1.98;;;9.10;99.90;;;;;;4932407;29;20218;-67
2022/04/09 15:29:56;;;;;;;1.35;1.30;;;9.30;99.90;;;;;;4932071;29;20250;-67
2022/04/09 15:32:23;;;;;;;3.97;1.58;;;9.40;99.90;;;;;;4932904;29;20305;-67
2022/04/09 15:34:49;;;;;;;0.93;0.93;;;9.60;99.90;;;;;;4931989;29;20575;-67
2022/04/09 15:37:16;;;;;;;1.60;0.95;;;9.60;99.90;;;;;;4928589;29;20214;-67
2022/04/09 15:39:43;;;;;;;3.20;2.13;;;9.70;99.90;;;;;;4934026;29;20276;-67
2022/04/09 15:42:12;;;;;;;1.90;1.70;;;9.70;99.90;;;;;;4925517;29;20233;-67
2022/04/09 15:44:39;;;;;;;5.10;2.65;;;9.60;99.90;;;;;;4935776;29;20217;-67
2022/04/09 15:47:08;;;;;;;2.22;2.00;;;9.50;99.90;;;;;;4935048;29;20210;-67
2022/04/09 15:49:35;;;;;;;2.33;2.13;;;9.50;99.90;;;;;;4935406;29;20315;-67
2022/04/09 15:52:03;;;;;;;5.50;3.47;;;9.40;99.90;;;;;;4927383;29;20681;-68
2022/04/09 15:54:30;;;;;;;8.35;2.20;;;9.30;99.90;;;;;;4936298;29;20253;-67
2022/04/09 15:56:57;;;;;;;4.55;1.65;;;9.30;99.90;;;;;;4935215;29;20641;-67
2022/04/09 15:59:23;;;;;;;4.45;2.33;;;9.20;99.90;;;;;;4936164;29;20217;-69
2022/04/09 16:01:50;;;;;;;5.43;2.05;;;9.10;99.90;;;;;;4935053;29;20217;-67
2022/04/09 16:04:18;;;;;;;2.03;1.08;;;9.00;99.90;;;;;;4933824;29;20221;-68
2022/04/09 16:06:45;;;;;;;3.10;1.55;;;8.90;99.90;;;;;;4934970;29;20358;-68
2022/04/09 16:09:11;;;;;;;6.38;1.67;;;8.90;99.90;;;;;;4935559;29;20810;-68
2022/04/09 16:11:39;;;;;;;1.98;1.52;;;8.90;99.90;;;;;;4934361;29;20230;-68
2022/04/09 16:14:06;;;;;;;2.17;1.23;;;9.00;99.90;;;;;;4935616;29;20202;-68
2022/04/09 16:16:32;;;;;;;2.17;0.85;;;9.00;99.90;;;;;;4935161;29;20309;-68
2022/04/09 16:18:59;;;;;;;2.67;1.17;;;9.00;99.90;;;;;;4930120;29;20210;-68
2022/04/09 16:21:27;;;;;;;2.38;1.10;;;9.00;99.90;;;;;;4935173;29;20225;-69
2022/04/09 16:23:54;;;;;;;2.25;2.05;;;9.20;99.90;;;;;;4935290;29;20297;-68
2022/04/09 16:26:21;;;;;;;1.40;1.40;;;9.20;99.90;;;;;;4934830;29;20229;-68
2022/04/09 16:28:49;;;;;;;2.45;1.55;;;9.30;99.90;;;;;;4935351;29;20262;-68
2022/04/09 16:31:15;;;;;;;2.40;1.35;;;9.30;99.90;;;;;;4934075;29;20225;-68
2022/04/09 16:33:42;;;;;;;2.10;1.27;;;9.30;99.90;;;;;;4934782;29;20210;-69
2022/04/09 16:36:09;;;;;;;11.68;2.55;;;9.30;99.90;;;;;;4934392;29;20206;-68
2022/04/09 16:38:37;;;;;;;6.38;1.60;;;9.30;99.90;;;;;;4935498;29;20230;-68
2022/04/09 16:41:04;;;;;;;2.90;1.20;;;9.30;99.90;;;;;;4933638;29;20230;-69
2022/04/09 16:43:31;;;;;;;5.18;1.20;;;9.30;99.90;;;;;;4935322;29;20272;-69
2022/04/09 16:45:58;;;;;;;4.07;1.38;;;9.20;99.90;;;;;;4934264;29;20221;-69
2022/04/09 16:48:24;;;;;;;4.35;2.60;;;9.10;99.90;;;;;;4934989;29;20222;-68
2022/04/09 16:50:51;;;;;;;3.95;2.50;;;9.00;99.90;;;;;;4933735;29;20230;-67
2022/04/09 16:53:18;;;;;;;4.22;1.52;;;8.90;99.90;;;;;;4935984;29;20217;-68
2022/04/09 16:55:46;;;;;;;4.10;1.65;;;8.80;99.90;;;;;;4936233;29;20904;-69
2022/04/09 16:58:13;;;;;;;2.97;1.17;;;8.70;99.90;;;;;;4936458;29;20221;-68
2022/04/09 17:00:39;;;;;;;2.20;2.00;;;8.60;99.90;;;;;;4934012;29;20317;-68